Time;durP1;ratioP1;P1;durP2;ratioP2;P2;SDS_P1;SDS_P2;PMS_P1;PMS_P2;Temp;Humidity;BMP_temperature;BMP_pressure;BME280_temperature;BME280_humidity;BME280_pressure;Samples;Min_cycle;Max_cycle;Signal;HPM_P1;HPM_P2
2023/06/07 00:00:18;;;;;;;2.37;2.20;;;17.20;99.90;;;;;;5035344;28;20286;-77
2023/06/07 00:02:44;;;;;;;2.50;2.30;;;17.20;99.90;;;;;;5035891;28;20178;-77
2023/06/07 00:05:10;;;;;;;2.30;2.10;;;17.10;99.90;;;;;;5035113;28;20183;-77
2023/06/07 00:07:35;;;;;;;3.37;2.00;;;17.10;99.90;;;;;;5018443;28;20650;-75
2023/06/07 00:10:02;;;;;;;2.30;1.87;;;17.20;99.90;;;;;;5034942;28;20191;-75
2023/06/07 00:12:28;;;;;;;4.97;2.27;;;17.10;99.90;;;;;;5047774;23;20231;-73
2023/06/07 00:14:54;;;;;;;4.13;2.10;;;17.00;99.90;;;;;;5032595;28;20180;-72
2023/06/07 00:17:20;;;;;;;2.13;2.03;;;16.90;99.90;;;;;;5032841;28;20512;-73
2023/06/07 00:19:46;;;;;;;1.90;1.80;;;16.80;99.90;;;;;;5019686;28;20597;-73
2023/06/07 00:22:14;;;;;;;2.17;2.07;;;16.80;99.90;;;;;;5032844;28;20191;-72
2023/06/07 00:24:40;;;;;;;2.40;2.30;;;16.80;99.90;;;;;;5032643;28;20255;-73
2023/06/07 00:27:05;;;;;;;2.73;2.03;;;16.80;99.90;;;;;;5032308;28;20172;-72
2023/06/07 00:29:31;;;;;;;2.13;2.03;;;16.70;99.90;;;;;;5031692;28;20182;-72
2023/06/07 00:31:56;;;;;;;2.73;2.50;;;16.70;99.90;;;;;;5032215;28;20195;-72
2023/06/07 00:34:22;;;;;;;2.13;1.93;;;16.60;99.90;;;;;;5032244;28;20175;-72
2023/06/07 00:36:47;;;;;;;2.00;1.90;;;16.70;99.90;;;;;;5032371;28;20171;-72
2023/06/07 00:39:13;;;;;;;3.27;2.30;;;16.70;99.90;;;;;;5032597;28;20226;-73
2023/06/07 00:41:38;;;;;;;2.47;2.27;;;16.50;99.90;;;;;;5032115;28;20578;-72
2023/06/07 00:44:04;;;;;;;2.20;2.10;;;16.30;99.90;;;;;;5030658;28;20179;-72
2023/06/07 00:46:31;;;;;;;2.93;2.40;;;16.20;99.90;;;;;;5032157;28;20218;-72
2023/06/07 00:48:58;;;;;;;2.30;2.20;;;16.20;99.90;;;;;;5032298;28;20195;-72
2023/06/07 00:51:26;;;;;;;3.23;2.20;;;16.10;99.90;;;;;;5032459;28;20198;-73
2023/06/07 00:53:52;;;;;;;2.37;2.20;;;16.00;99.90;;;;;;5031814;28;20232;-72
2023/06/07 00:56:18;;;;;;;2.40;2.10;;;16.00;99.90;;;;;;5030519;28;20183;-72
2023/06/07 00:58:45;;;;;;;2.90;2.20;;;15.90;99.90;;;;;;5032167;28;20657;-72
2023/06/07 01:01:11;;;;;;;2.17;2.07;;;15.60;99.90;;;;;;5032082;28;20210;-72
2023/06/07 01:03:37;;;;;;;2.37;2.17;;;15.60;99.90;;;;;;5032080;28;20171;-72
2023/06/07 01:06:03;;;;;;;4.13;2.20;;;15.60;99.90;;;;;;5031589;28;20183;-73
2023/06/07 01:08:30;;;;;;;2.27;2.10;;;15.50;99.90;;;;;;5032104;28;20661;-73
2023/06/07 01:10:58;;;;;;;2.40;2.17;;;15.40;99.90;;;;;;5030215;28;20209;-73
2023/06/07 01:13:24;;;;;;;4.10;2.10;;;15.50;99.90;;;;;;5031179;28;20229;-72
2023/06/07 01:15:50;;;;;;;3.97;2.17;;;15.50;99.90;;;;;;5030125;28;20182;-72
2023/06/07 01:18:18;;;;;;;2.40;2.23;;;15.40;99.90;;;;;;5031713;28;20241;-73
2023/06/07 01:20:51;;;;;;;2.30;2.10;;;15.40;99.90;;;;;;5031471;28;20671;-72
2023/06/07 01:23:28;;;;;;;4.53;2.33;;;15.40;99.90;;;;;;5032002;28;20167;-72
2023/06/07 01:25:57;;;;;;;2.47;2.27;;;15.20;99.90;;;;;;5029780;28;20175;-72
2023/06/07 01:28:24;;;;;;;2.50;2.30;;;15.30;99.90;;;;;;5031669;28;20171;-72
2023/06/07 01:30:52;;;;;;;2.60;2.40;;;15.20;99.90;;;;;;5030051;28;20187;-72
2023/06/07 01:33:18;;;;;;;2.97;2.20;;;15.10;99.90;;;;;;5030357;28;20179;-73
2023/06/07 01:35:45;;;;;;;2.27;2.17;;;15.00;99.90;;;;;;5031179;28;20583;-72
2023/06/07 01:38:12;;;;;;;3.03;2.33;;;15.00;99.90;;;;;;5031408;28;20716;-72
2023/06/07 01:40:38;;;;;;;2.37;2.23;;;14.90;99.90;;;;;;5031211;28;20203;-72
2023/06/07 01:43:05;;;;;;;3.63;2.37;;;14.70;99.90;;;;;;5030595;28;20174;-72
2023/06/07 01:45:31;;;;;;;2.60;2.40;;;14.60;99.90;;;;;;5031029;28;20182;-72
2023/06/07 01:47:57;;;;;;;2.60;2.40;;;14.70;99.90;;;;;;5031117;28;20171;-73
2023/06/07 01:50:22;;;;;;;2.47;2.27;;;14.70;99.90;;;;;;5031455;28;20186;-72
2023/06/07 01:52:48;;;;;;;4.37;2.43;;;14.70;99.90;;;;;;5031335;28;20195;-72
2023/06/07 01:55:15;;;;;;;2.57;2.37;;;14.60;99.90;;;;;;5031058;28;20630;-72
2023/06/07 01:58:01;;;;;;;3.00;2.30;;;14.60;99.90;;;;;;5031143;28;20664;-72
2023/06/07 02:00:38;;;;;;;2.90;2.60;;;14.60;99.90;;;;;;5031068;28;20202;-72
2023/06/07 02:03:38;;;;;;;2.83;2.40;;;14.50;99.90;;;;;;5031263;28;20194;-72
2023/06/07 02:06:08;;;;;;;2.90;2.57;;;14.60;99.90;;;;;;5031072;28;20175;-72
2023/06/07 02:08:35;;;;;;;2.67;2.47;;;;;;;;;;5030802;28;20265;-72
2023/06/07 02:11:02;;;;;;;2.60;2.13;;;14.30;99.90;;;;;;5029600;28;20206;-73
2023/06/07 02:13:32;;;;;;;2.80;2.50;;;14.30;99.90;;;;;;5030944;28;20258;-72
2023/06/07 02:15:58;;;;;;;3.10;2.20;;;14.40;99.90;;;;;;5030709;28;20232;-72
2023/06/07 02:18:24;;;;;;;2.53;2.33;;;14.40;99.90;;;;;;5030993;28;20183;-72
2023/06/07 02:20:50;;;;;;;2.60;2.40;;;14.40;99.90;;;;;;5029778;28;20203;-73
2023/06/07 02:23:16;;;;;;;3.07;2.53;;;14.30;99.90;;;;;;5031054;28;20190;-72
2023/06/07 02:25:42;;;;;;;3.27;2.30;;;14.20;99.90;;;;;;5029448;28;20201;-72
2023/06/07 02:28:07;;;;;;;2.20;2.10;;;14.10;99.90;;;;;;5030578;28;20524;-72
2023/06/07 02:30:33;;;;;;;2.70;2.33;;;14.10;99.90;;;;;;5030872;28;20186;-72
2023/06/07 02:33:00;;;;;;;3.07;2.73;;;13.90;99.90;;;;;;5031078;28;20256;-72
2023/06/07 02:35:26;;;;;;;3.67;2.43;;;13.70;99.90;;;;;;5029364;28;20175;-71
2023/06/07 02:37:52;;;;;;;3.20;2.60;;;13.60;99.90;;;;;;5030812;28;20179;-71
2023/06/07 02:40:17;;;;;;;2.67;2.47;;;13.50;99.90;;;;;;5031040;28;20202;-72
2023/06/07 02:42:47;;;;;;;3.20;2.57;;;13.70;99.90;;;;;;5032053;28;20203;-73
2023/06/07 02:45:13;;;;;;;3.40;2.57;;;13.60;99.90;;;;;;5032378;28;20649;-72
2023/06/07 02:47:39;;;;;;;2.33;2.23;;;13.40;99.90;;;;;;5031474;28;20250;-73
2023/06/07 02:50:06;;;;;;;2.77;2.57;;;13.20;99.90;;;;;;5033833;28;20175;-73
2023/06/07 02:52:33;;;;;;;3.13;2.83;;;12.90;99.90;;;;;;5025735;28;20200;-73
2023/06/07 02:54:59;;;;;;;2.60;2.40;;;12.80;99.90;;;;;;5030153;28;20183;-73
2023/06/07 02:57:25;;;;;;;2.90;2.73;;;12.80;99.90;;;;;;5034325;28;20232;-73
2023/06/07 02:59:52;;;;;;;3.50;2.87;;;12.70;99.90;;;;;;5033786;28;20298;-72
2023/06/07 03:02:18;;;;;;;2.60;2.40;;;12.60;99.90;;;;;;5034175;28;20191;-73
2023/06/07 03:04:44;;;;;;;2.73;2.53;;;12.50;99.90;;;;;;5034074;28;20663;-73
2023/06/07 03:07:10;;;;;;;4.07;2.70;;;12.50;99.90;;;;;;5032690;28;20167;-73
2023/06/07 03:09:35;;;;;;;3.07;2.80;;;12.50;99.90;;;;;;5034314;28;20175;-73
2023/06/07 03:12:00;;;;;;;2.93;2.73;;;12.40;99.90;;;;;;5034049;28;20202;-72
2023/06/07 03:14:26;;;;;;;3.00;2.77;;;12.50;99.90;;;;;;5033708;28;20179;-72
2023/06/07 03:16:52;;;;;;;3.33;3.03;;;12.50;99.90;;;;;;5033782;28;20566;-72
2023/06/07 03:19:18;;;;;;;2.70;2.50;;;12.60;99.90;;;;;;5032866;28;20175;-72
2023/06/07 03:21:44;;;;;;;3.50;3.03;;;12.60;99.90;;;;;;5033379;28;20591;-73
2023/06/07 03:24:14;;;;;;;3.00;2.80;;;12.40;99.90;;;;;;5032768;28;20229;-72
2023/06/07 03:26:40;;;;;;;4.17;3.07;;;12.40;99.90;;;;;;5033566;28;20175;-72
2023/06/07 03:29:06;;;;;;;5.27;3.10;;;12.50;99.90;;;;;;5033555;28;20171;-72
2023/06/07 03:31:31;;;;;;;2.87;2.70;;;12.40;99.90;;;;;;5033867;28;20194;-72
2023/06/07 03:33:57;;;;;;;2.97;2.73;;;12.30;99.90;;;;;;5033480;28;20271;-72
2023/06/07 03:36:25;;;;;;;3.03;2.83;;;12.30;99.90;;;;;;5033370;28;20179;-74
2023/06/07 03:38:52;;;;;;;3.47;2.60;;;12.30;99.90;;;;;;5033637;28;20167;-73
2023/06/07 03:41:18;;;;;;;2.93;2.70;;;12.30;99.90;;;;;;5033747;28;20207;-74
2023/06/07 03:43:43;;;;;;;3.30;2.50;;;12.40;99.90;;;;;;5031933;28;20560;-74
2023/06/07 03:46:09;;;;;;;2.93;2.73;;;12.30;99.90;;;;;;5033061;28;20190;-74
2023/06/07 03:48:34;;;;;;;2.97;2.77;;;12.20;99.90;;;;;;5033604;28;20164;-73
2023/06/07 03:51:00;;;;;;;3.17;2.87;;;12.30;99.90;;;;;;5033460;28;20684;-74
2023/06/07 03:53:25;;;;;;;2.83;2.63;;;12.20;99.90;;;;;;5033536;28;20517;-74
2023/06/07 03:55:52;;;;;;;2.87;2.67;;;12.20;99.90;;;;;;5032801;28;20175;-73
2023/06/07 03:58:18;;;;;;;3.03;2.83;;;12.30;99.90;;;;;;5032834;28;20345;-73
2023/06/07 04:00:45;;;;;;;3.10;2.90;;;12.30;99.90;;;;;;5033395;28;20763;-74
2023/06/07 04:03:10;;;;;;;3.00;2.70;;;12.50;99.90;;;;;;5032915;28;20182;-73
2023/06/07 04:05:38;;;;;;;2.70;2.50;;;12.60;99.90;;;;;;5031184;28;20167;-74
2023/06/07 04:08:05;;;;;;;2.83;2.63;;;12.40;99.90;;;;;;5032840;28;20209;-74
2023/06/07 04:10:31;;;;;;;4.90;2.57;;;12.60;99.90;;;;;;5031896;28;20265;-73
2023/06/07 04:12:56;;;;;;;3.00;2.73;;;12.50;99.90;;;;;;5032509;28;20637;-73
2023/06/07 04:15:22;;;;;;;3.37;3.00;;;12.40;99.90;;;;;;5032813;28;20256;-73
2023/06/07 04:17:47;;;;;;;3.17;2.87;;;12.70;99.90;;;;;;5032641;28;20186;-73
2023/06/07 04:20:14;;;;;;;3.00;2.80;;;12.80;99.90;;;;;;5032865;28;20198;-73
2023/06/07 04:22:41;;;;;;;3.30;2.93;;;12.90;99.90;;;;;;5032651;28;20541;-73
2023/06/07 04:25:07;;;;;;;3.00;2.77;;;12.90;99.90;;;;;;5032474;28;20206;-74
2023/06/07 04:27:34;;;;;;;3.03;2.57;;;13.00;99.90;;;;;;5032455;28;20240;-74
2023/06/07 04:30:01;;;;;;;3.33;3.10;;;13.20;99.90;;;;;;5024630;28;20171;-74
2023/06/07 04:32:28;;;;;;;2.83;2.63;;;13.10;99.90;;;;;;5032256;28;20252;-73
2023/06/07 04:34:53;;;;;;;2.83;2.63;;;13.00;99.90;;;;;;5030579;28;20205;-74
2023/06/07 04:37:24;;;;;;;3.10;2.70;;;13.20;99.90;;;;;;5030861;28;20546;-74
2023/06/07 04:39:51;;;;;;;3.50;3.07;;;13.30;99.90;;;;;;5032406;28;20183;-73
2023/06/07 04:42:17;;;;;;;2.90;2.70;;;13.50;99.90;;;;;;5032231;28;20278;-73
2023/06/07 04:44:43;;;;;;;3.50;3.20;;;13.50;99.90;;;;;;5032034;28;20203;-73
2023/06/07 04:47:09;;;;;;;3.07;2.77;;;13.50;99.90;;;;;;5032099;28;20233;-73
2023/06/07 04:49:35;;;;;;;3.10;2.80;;;13.80;99.90;;;;;;5032567;28;20163;-74
2023/06/07 04:52:02;;;;;;;2.70;2.50;;;14.00;99.90;;;;;;5032195;28;20183;-73
2023/06/07 04:54:29;;;;;;;3.40;2.70;;;14.40;99.90;;;;;;5031990;28;20188;-72
2023/06/07 04:56:56;;;;;;;2.73;2.53;;;14.60;99.90;;;;;;5031628;28;20165;-73
2023/06/07 04:59:22;;;;;;;2.10;2.00;;;15.40;99.90;;;;;;5030955;28;20182;-72
2023/06/07 05:01:48;;;;;;;2.75;2.20;;;16.10;99.90;;;;;;5032026;28;20199;-72
2023/06/07 05:04:16;;;;;;;3.83;2.45;;;16.40;99.90;;;;;;5032029;28;20182;-73
2023/06/07 05:06:42;;;;;;;2.65;2.53;;;16.80;99.90;;;;;;5031866;28;20174;-73
2023/06/07 05:09:08;;;;;;;2.58;2.38;;;16.80;99.90;;;;;;5030627;28;20178;-72
2023/06/07 05:11:34;;;;;;;3.13;2.92;;;16.50;99.90;;;;;;5031535;28;20215;-73
2023/06/07 05:13:59;;;;;;;2.83;2.30;;;15.90;99.90;;;;;;5031399;28;20661;-73
2023/06/07 05:16:25;;;;;;;2.80;2.60;;;15.80;99.90;;;;;;5031383;28;20178;-73
2023/06/07 05:18:50;;;;;;;2.77;2.57;;;16.00;99.90;;;;;;5029823;28;20173;-73
2023/06/07 05:21:16;;;;;;;3.17;2.40;;;16.20;99.90;;;;;;5031533;28;20220;-73
2023/06/07 05:23:42;;;;;;;3.07;2.57;;;16.80;99.90;;;;;;5031738;28;20170;-73
2023/06/07 05:26:08;;;;;;;2.87;2.67;;;17.00;99.90;;;;;;5031210;28;20174;-73
2023/06/07 05:28:34;;;;;;;2.87;2.67;;;17.20;99.90;;;;;;5018574;28;20171;-73
2023/06/07 05:31:01;;;;;;;3.73;2.50;;;17.10;99.90;;;;;;5031476;28;20222;-73
2023/06/07 05:33:28;;;;;;;2.80;2.60;;;17.00;99.90;;;;;;5031666;28;20174;-74
2023/06/07 05:35:54;;;;;;;3.47;3.00;;;17.00;99.90;;;;;;5031176;28;20177;-73
2023/06/07 05:38:19;;;;;;;3.17;2.47;;;16.80;99.90;;;;;;5031585;28;20179;-73
2023/06/07 05:40:45;;;;;;;3.10;2.87;;;16.80;99.90;;;;;;5031068;28;20235;-73
2023/06/07 05:43:11;;;;;;;4.03;2.47;;;17.00;99.90;;;;;;5031166;28;20228;-73
2023/06/07 05:45:36;;;;;;;2.87;2.63;;;17.30;99.90;;;;;;5031128;28;20256;-72
2023/06/07 05:48:02;;;;;;;2.60;2.40;;;17.60;99.90;;;;;;5031227;28;20198;-73
2023/06/07 05:50:27;;;;;;;2.70;2.50;;;18.20;99.90;;;;;;5031264;28;20262;-72
2023/06/07 05:52:57;;;;;;;2.30;2.20;;;18.40;99.90;;;;;;5031185;28;20590;-73
2023/06/07 05:55:27;;;;;;;2.63;2.43;;;18.20;99.90;;;;;;5030905;28;20183;-73
2023/06/07 05:58:00;;;;;;;2.80;2.60;;;18.00;99.90;;;;;;5031039;28;20269;-72
2023/06/07 06:00:25;;;;;;;2.50;2.30;;;18.10;99.90;;;;;;5031221;28;20720;-74
2023/06/07 06:02:52;;;;;;;2.60;2.40;;;18.30;99.90;;;;;;5031219;28;20317;-70
2023/06/07 06:05:20;;;;;;;2.40;2.30;;;18.30;99.90;;;;;;5029607;28;20171;-73
2023/06/07 06:07:46;;;;;;;2.50;2.30;;;18.60;99.90;;;;;;5031136;28;20175;-73
2023/06/07 06:10:11;;;;;;;3.08;2.85;;;18.70;99.90;;;;;;5031442;28;20174;-73
2023/06/07 06:12:37;;;;;;;3.17;2.90;;;18.70;99.90;;;;;;5061080;23;20936;-74
2023/06/07 06:15:03;;;;;;;4.07;2.47;;;18.60;99.90;;;;;;5069612;28;20687;-73
2023/06/07 06:17:28;;;;;;;3.47;2.63;;;18.60;99.90;;;;;;5071250;28;20166;-74
2023/06/07 06:19:54;;;;;;;2.72;2.60;;;18.80;99.90;;;;;;5071397;28;20197;-74
2023/06/07 06:22:19;;;;;;;2.87;2.60;;;18.90;99.90;;;;;;5069811;28;20166;-75
2023/06/07 06:24:45;;;;;;;2.80;2.60;;;18.90;99.90;;;;;;5070839;28;20248;-73
2023/06/07 06:27:12;;;;;;;3.23;2.93;;;19.00;99.90;;;;;;5074263;28;20181;-73
2023/06/07 06:29:37;;;;;;;3.47;2.92;;;19.10;99.90;;;;;;5076976;28;20174;-74
2023/06/07 06:32:03;;;;;;;3.88;3.05;;;19.20;99.90;;;;;;5078200;28;20231;-73
2023/06/07 06:34:29;;;;;;;3.33;2.90;;;19.20;99.90;;;;;;5076559;28;20193;-74
2023/06/07 06:36:57;;;;;;;3.97;2.97;;;19.30;99.90;;;;;;5075724;28;20174;-73
2023/06/07 06:39:23;;;;;;;2.97;2.77;;;19.30;99.90;;;;;;5076831;28;20166;-72
2023/06/07 06:41:49;;;;;;;2.60;2.50;;;19.30;99.90;;;;;;5073262;28;20197;-74
2023/06/07 06:44:15;;;;;;;3.10;2.90;;;19.30;99.90;;;;;;5074996;28;20327;-74
2023/06/07 06:46:40;;;;;;;3.20;2.78;;;19.50;99.90;;;;;;5074181;28;20178;-73
2023/06/07 06:49:06;;;;;;;6.40;2.90;;;19.40;99.90;;;;;;5074860;28;20180;-75
2023/06/07 06:51:31;;;;;;;2.70;2.53;;;19.30;99.90;;;;;;5074189;28;20173;-74
2023/06/07 06:53:57;;;;;;;2.92;2.72;;;19.40;99.90;;;;;;5072125;28;20301;-73
2023/06/07 06:56:23;;;;;;;2.67;2.47;;;19.50;99.90;;;;;;5073967;28;20636;-73
2023/06/07 06:58:48;;;;;;;3.00;2.80;;;19.70;99.90;;;;;;5074343;28;20517;-73
2023/06/07 07:01:15;;;;;;;3.10;2.80;;;19.80;99.90;;;;;;5074196;28;20239;-74
2023/06/07 07:03:40;;;;;;;3.33;3.05;;;19.80;99.90;;;;;;5074354;28;20296;-74
2023/06/07 07:06:07;;;;;;;4.05;3.05;;;19.80;99.90;;;;;;5073729;28;20687;-74
2023/06/07 07:08:34;;;;;;;3.13;2.92;;;19.80;99.90;;;;;;5074177;28;20639;-73
2023/06/07 07:11:00;;;;;;;3.67;3.00;;;19.70;99.90;;;;;;5067800;28;20182;-73
2023/06/07 07:13:25;;;;;;;3.53;2.90;;;19.60;99.90;;;;;;5068558;28;20217;-75
2023/06/07 07:15:51;;;;;;;3.03;2.80;;;19.80;99.90;;;;;;5056788;28;21053;-74
2023/06/07 07:18:16;;;;;;;3.53;2.83;;;19.90;99.90;;;;;;5063167;28;20190;-74
2023/06/07 07:20:42;;;;;;;5.15;2.78;;;19.80;99.90;;;;;;5075204;28;20590;-74
2023/06/07 07:23:07;;;;;;;3.70;3.25;;;20.20;99.90;;;;;;5075055;28;20708;-74
2023/06/07 07:25:33;;;;;;;5.28;2.80;;;20.10;99.90;;;;;;5073688;28;20169;-73
2023/06/07 07:27:58;;;;;;;3.30;2.83;;;20.20;99.90;;;;;;5074695;28;20186;-73
2023/06/07 07:30:24;;;;;;;5.05;2.80;;;19.90;99.90;;;;;;5073215;28;20328;-73
2023/06/07 07:32:50;;;;;;;3.35;3.00;;;20.10;99.90;;;;;;5073118;28;20197;-74
2023/06/07 07:35:15;;;;;;;3.10;2.90;;;20.40;99.90;;;;;;5073625;28;20178;-73
2023/06/07 07:37:41;;;;;;;3.03;2.83;;;20.20;99.90;;;;;;5073512;28;20247;-72
2023/06/07 07:40:08;;;;;;;3.17;2.97;;;20.40;99.90;;;;;;5075999;28;20655;-73
2023/06/07 07:42:34;;;;;;;2.90;2.70;;;20.70;99.90;;;;;;5059660;28;20198;-74
2023/06/07 07:45:00;;;;;;;3.03;2.83;;;20.70;99.90;;;;;;5073547;28;20655;-75
2023/06/07 07:47:26;;;;;;;2.97;2.78;;;20.80;99.90;;;;;;5073446;28;20181;-73
2023/06/07 07:49:55;;;;;;;3.72;2.90;;;20.90;99.90;;;;;;5071850;28;20182;-73
2023/06/07 07:52:20;;;;;;;3.10;2.90;;;21.30;99.90;;;;;;5073629;28;20260;-74
2023/06/07 07:54:46;;;;;;;4.28;3.15;;;21.20;99.90;;;;;;5074767;28;20722;-73
2023/06/07 07:57:11;;;;;;;3.15;2.83;;;21.10;99.90;;;;;;5076622;28;20173;-73
2023/06/07 07:59:37;;;;;;;3.00;2.80;;;20.80;99.90;;;;;;5073532;28;20231;-75
2023/06/07 08:02:03;;;;;;;3.20;2.95;;;20.80;99.90;;;;;;5059414;28;20825;-73
2023/06/07 08:04:29;;;;;;;2.83;2.63;;;21.00;99.90;;;;;;5067221;28;20280;-74
2023/06/07 08:06:55;;;;;;;6.57;2.78;;;21.10;99.90;;;;;;5054544;28;20273;-74
2023/06/07 08:09:20;;;;;;;2.60;2.42;;;21.20;99.90;;;;;;5059246;28;20520;-74
2023/06/07 08:11:47;;;;;;;3.10;2.90;;;21.20;99.90;;;;;;5075270;28;20185;-73
2023/06/07 08:14:13;;;;;;;4.18;2.90;;;21.30;99.90;;;;;;5072781;28;20198;-74
2023/06/07 08:16:38;;;;;;;3.17;2.70;;;21.60;99.90;;;;;;5073124;28;20174;-74
2023/06/07 08:19:06;;;;;;;2.83;2.63;;;21.80;99.90;;;;;;5071819;28;20260;-75
2023/06/07 08:21:33;;;;;;;3.10;2.63;;;21.80;99.90;;;;;;5073014;28;20247;-72
2023/06/07 08:23:58;;;;;;;3.65;2.65;;;21.80;99.90;;;;;;5072768;28;20201;-74
2023/06/07 08:26:24;;;;;;;2.88;2.67;;;22.00;99.90;;;;;;5073774;28;20174;-73
2023/06/07 08:28:49;;;;;;;2.90;2.60;;;22.00;99.90;;;;;;5072060;28;20568;-74
2023/06/07 08:31:15;;;;;;;3.22;2.47;;;22.00;99.90;;;;;;5073405;28;20193;-74
2023/06/07 08:33:41;;;;;;;2.95;2.72;;;22.20;99.90;;;;;;5072809;28;20193;-73
2023/06/07 08:36:06;;;;;;;4.45;2.97;;;21.90;99.90;;;;;;5068646;28;20178;-73
2023/06/07 08:38:32;;;;;;;3.15;2.85;;;21.70;99.90;;;;;;5058373;28;20182;-74
2023/06/07 08:41:00;;;;;;;2.85;2.60;;;21.80;99.90;;;;;;5067573;28;20209;-75
2023/06/07 08:43:26;;;;;;;2.88;2.67;;;21.70;99.90;;;;;;5069005;28;20292;-76
2023/06/07 08:45:52;;;;;;;4.93;2.80;;;21.80;99.90;;;;;;5072093;28;20170;-76
2023/06/07 08:48:18;;;;;;;2.70;2.60;;;21.80;99.90;;;;;;5073527;28;20213;-76
2023/06/07 08:50:45;;;;;;;3.45;2.70;;;21.70;99.90;;;;;;5071422;28;20166;-75
2023/06/07 08:53:19;;;;;;;2.78;2.58;;;21.70;99.90;;;;;;5072423;28;20193;-76
2023/06/07 08:55:45;;;;;;;3.03;2.83;;;21.70;99.90;;;;;;5071156;28;20209;-74
2023/06/07 08:58:11;;;;;;;2.72;2.53;;;21.80;99.90;;;;;;5072519;28;20170;-74
2023/06/07 09:00:37;;;;;;;2.88;2.67;;;21.90;99.90;;;;;;5071054;28;20201;-74
2023/06/07 09:03:03;;;;;;;2.40;2.30;;;21.80;99.90;;;;;;5072285;28;20185;-74
2023/06/07 09:05:29;;;;;;;2.42;2.33;;;22.00;99.90;;;;;;5072024;28;20174;-74
2023/06/07 09:07:55;;;;;;;2.53;2.42;;;22.60;99.90;;;;;;5072239;28;20685;-73
2023/06/07 09:10:21;;;;;;;2.53;2.33;;;22.50;99.90;;;;;;5072401;28;20166;-75
2023/06/07 09:12:48;;;;;;;2.70;2.50;;;22.60;99.90;;;;;;5071953;28;20671;-74
2023/06/07 09:15:19;;;;;;;2.70;2.50;;;22.80;99.90;;;;;;5072019;28;20181;-75
2023/06/07 09:17:58;;;;;;;2.72;2.53;;;22.70;99.90;;;;;;5072040;28;20169;-75
2023/06/07 09:20:33;;;;;;;3.13;2.83;;;22.40;99.90;;;;;;5072028;28;20757;-74
2023/06/07 09:23:01;;;;;;;2.90;2.70;;;22.40;99.90;;;;;;5059308;28;20315;-76
2023/06/07 09:25:27;;;;;;;3.60;2.58;;;22.80;99.90;;;;;;5071670;28;20162;-74
2023/06/07 09:27:54;;;;;;;3.00;2.80;;;23.00;99.90;;;;;;5071817;28;20174;-75
2023/06/07 09:30:20;;;;;;;3.03;2.83;;;23.30;99.90;;;;;;5070651;28;20280;-75
2023/06/07 09:32:46;;;;;;;2.90;2.70;;;23.60;99.90;;;;;;5071773;28;20666;-75
2023/06/07 09:35:16;;;;;;;3.88;2.72;;;23.60;99.90;;;;;;5070415;28;20235;-75
2023/06/07 09:37:45;;;;;;;2.85;2.65;;;23.90;99.90;;;;;;5070537;28;20201;-75
2023/06/07 09:40:11;;;;;;;3.00;2.80;;;23.90;99.90;;;;;;5073395;28;20207;-76
2023/06/07 09:42:37;;;;;;;3.33;3.05;;;23.90;99.90;;;;;;5074639;28;20174;-75
2023/06/07 09:45:12;;;;;;;3.17;2.88;;;23.70;99.90;;;;;;5073401;28;20185;-74
2023/06/07 09:47:42;;;;;;;4.47;3.10;;;23.30;99.90;;;;;;5076669;28;20174;-75
2023/06/07 09:50:12;;;;;;;3.60;3.30;;;23.40;99.90;;;;;;5076230;28;20264;-74
2023/06/07 09:52:39;;;;;;;3.00;2.80;;;23.80;99.90;;;;;;5071100;28;20189;-74
2023/06/07 09:55:09;;;;;;;3.03;2.83;;;23.60;99.90;;;;;;5073621;28;20170;-73
2023/06/07 09:57:37;;;;;;;2.90;2.70;;;23.30;99.90;;;;;;5073342;28;20177;-75
2023/06/07 10:00:13;;;;;;;3.17;2.85;;;23.50;99.90;;;;;;5072484;28;20675;-74
2023/06/07 10:02:41;;;;;;;3.60;3.30;;;23.80;99.90;;;;;;5071850;28;20190;-74
2023/06/07 10:05:07;;;;;;;3.10;2.80;;;23.80;99.90;;;;;;5071088;28;20222;-74
2023/06/07 10:07:36;;;;;;;3.50;3.20;;;24.20;99.90;;;;;;5069578;28;20173;-76
2023/06/07 10:10:03;;;;;;;3.35;3.10;;;24.20;99.90;;;;;;5071698;28;20658;-73
2023/06/07 10:12:31;;;;;;;4.65;3.30;;;24.10;99.90;;;;;;5070175;28;20201;-74
2023/06/07 10:15:01;;;;;;;3.50;3.30;;;23.80;99.90;;;;;;5071438;28;20170;-74
2023/06/07 10:17:32;;;;;;;3.45;3.13;;;23.20;99.90;;;;;;5072483;28;20173;-75
2023/06/07 10:20:03;;;;;;;2.88;2.75;;;22.90;99.90;;;;;;5076354;28;20660;-76
2023/06/07 10:22:34;;;;;;;3.22;3.03;;;22.70;99.90;;;;;;5071832;28;20188;-74
2023/06/07 10:25:10;;;;;;;3.03;2.83;;;22.70;99.90;;;;;;5071401;28;20268;-75
2023/06/07 10:27:44;;;;;;;3.22;2.88;;;22.90;99.90;;;;;;5069833;28;20201;-76
2023/06/07 10:30:11;;;;;;;3.35;3.05;;;22.90;99.90;;;;;;5071236;28;20219;-74
2023/06/07 10:32:38;;;;;;;2.72;2.53;;;23.00;99.90;;;;;;5071167;28;20201;-75
2023/06/07 10:35:08;;;;;;;2.55;2.45;;;23.60;99.90;;;;;;5070996;28;20178;-74
2023/06/07 10:37:36;;;;;;;2.33;2.22;;;24.10;99.90;;;;;;5069942;28;20227;-74
2023/06/07 10:40:09;;;;;;;2.47;2.35;;;24.60;99.90;;;;;;5071248;28;20292;-74
2023/06/07 10:42:35;;;;;;;2.50;2.33;;;24.70;99.90;;;;;;5071195;28;20201;-75
2023/06/07 10:45:01;;;;;;;2.60;2.50;;;24.70;99.90;;;;;;5070652;28;20256;-74
2023/06/07 10:47:29;;;;;;;2.28;2.17;;;24.70;99.90;;;;;;5071089;28;20253;-75
2023/06/07 10:49:55;;;;;;;2.38;2.28;;;24.50;99.90;;;;;;5070938;28;20256;-76
2023/06/07 10:52:21;;;;;;;2.50;2.40;;;24.10;99.90;;;;;;5071488;28;20659;-74
2023/06/07 10:54:47;;;;;;;2.90;2.70;;;24.50;99.90;;;;;;5071047;28;20636;-76
2023/06/07 10:57:13;;;;;;;2.45;2.20;;;24.50;99.90;;;;;;5071531;28;20181;-75
2023/06/07 10:59:39;;;;;;;2.53;2.35;;;24.30;99.90;;;;;;5071444;28;20177;-74
2023/06/07 11:02:18;;;;;;;2.50;2.40;;;24.40;99.90;;;;;;5071376;28;20166;-75
2023/06/07 11:04:51;;;;;;;2.70;2.60;;;24.10;99.90;;;;;;5069493;28;20206;-74
2023/06/07 11:07:30;;;;;;;2.83;2.42;;;23.70;99.90;;;;;;5070889;28;20162;-76
2023/06/07 11:10:02;;;;;;;3.17;2.70;;;23.40;99.90;;;;;;5070817;28;20166;-74
2023/06/07 11:12:46;;;;;;;4.40;2.28;;;24.00;99.90;;;;;;5069419;28;20261;-75
2023/06/07 11:15:17;;;;;;;2.30;2.10;;;24.40;99.90;;;;;;5054845;28;20173;-75
2023/06/07 11:17:52;;;;;;;2.28;2.15;;;24.70;99.90;;;;;;5070241;28;20181;-75
2023/06/07 11:20:36;;;;;;;3.13;2.50;;;24.60;99.90;;;;;;5074105;28;20193;-74
2023/06/07 11:23:27;;;;;;;3.28;3.08;;;24.90;99.90;;;;;;5074479;28;20659;-74
2023/06/07 11:26:06;;;;;;;3.13;2.85;;;23.80;99.90;;;;;;5073994;28;20166;-75
2023/06/07 11:28:32;;;;;;;3.15;2.95;;;23.40;99.90;;;;;;5072976;28;20199;-74
2023/06/07 11:31:00;;;;;;;3.55;2.75;;;23.20;99.90;;;;;;5074354;28;20169;-75
2023/06/07 11:33:26;;;;;;;2.97;2.78;;;23.20;99.90;;;;;;5073970;28;20193;-74
2023/06/07 11:35:52;;;;;;;2.85;2.67;;;23.60;99.90;;;;;;5072372;28;20181;-75
2023/06/07 11:38:18;;;;;;;2.33;2.22;;;23.60;99.90;;;;;;5072780;28;20169;-74
2023/06/07 11:40:45;;;;;;;2.60;2.50;;;23.80;99.90;;;;;;5073727;28;20182;-76
2023/06/07 11:43:19;;;;;;;4.80;2.42;;;24.70;99.90;;;;;;5059067;28;20202;-74
2023/06/07 11:45:45;;;;;;;2.60;2.50;;;25.60;99.90;;;;;;5062629;28;20208;-75
2023/06/07 11:48:11;;;;;;;2.55;2.40;;;26.00;99.90;;;;;;5073828;28;20206;-75
2023/06/07 11:50:37;;;;;;;3.20;3.00;;;25.90;99.90;;;;;;5073987;28;20178;-73
2023/06/07 11:53:06;;;;;;;3.00;2.80;;;25.40;99.90;;;;;;5073620;28;20573;-74
2023/06/07 11:55:32;;;;;;;2.40;2.30;;;24.70;99.90;;;;;;5073234;28;20543;-73
2023/06/07 11:58:01;;;;;;;2.90;2.70;;;24.30;99.90;;;;;;5072248;28;20647;-75
2023/06/07 12:00:29;;;;;;;3.28;2.95;;;24.40;99.90;;;;;;5074272;28;20190;-75
2023/06/07 12:02:55;;;;;;;3.60;3.00;;;24.90;99.90;;;;;;5074931;28;20238;-75
2023/06/07 12:05:29;;;;;;;2.80;2.60;;;25.50;99.90;;;;;;5075078;28;20229;-74
2023/06/07 12:07:59;;;;;;;3.42;2.97;;;26.10;99.90;;;;;;5072855;28;20184;-77
2023/06/07 12:10:27;;;;;;;2.95;2.67;;;26.30;99.90;;;;;;5076060;28;20173;-74
2023/06/07 12:13:15;;;;;;;2.40;2.30;;;26.70;99.90;;;;;;5075197;28;20201;-75
2023/06/07 12:15:47;;;;;;;4.85;2.58;;;27.40;99.90;;;;;;5087655;22;20314;-75
2023/06/07 12:18:22;;;;;;;3.83;3.38;;;26.20;99.90;;;;;;5052885;28;20208;-75
2023/06/07 12:20:48;;;;;;;3.72;3.53;;;25.00;99.90;;;;;;5052644;28;20301;-75
2023/06/07 12:23:20;;;;;;;3.47;3.20;;;23.90;99.90;;;;;;5052357;28;20296;-77
2023/06/07 12:25:45;;;;;;;3.67;3.38;;;23.80;99.90;;;;;;5056508;28;20193;-75
2023/06/07 12:28:14;;;;;;;4.05;3.00;;;24.10;99.90;;;;;;5070955;28;20218;-75
2023/06/07 12:30:47;;;;;;;2.72;2.53;;;25.20;99.90;;;;;;5071403;28;20573;-76
2023/06/07 12:33:15;;;;;;;2.25;2.15;;;26.10;99.90;;;;;;5072742;28;20166;-76
2023/06/07 12:35:48;;;;;;;3.53;2.85;;;26.70;99.90;;;;;;5057916;28;20189;-75
2023/06/07 12:38:14;;;;;;;3.08;2.90;;;26.90;99.90;;;;;;5072531;28;20516;-75
2023/06/07 12:40:40;;;;;;;2.58;2.47;;;27.50;99.90;;;;;;5071588;28;20202;-75
2023/06/07 12:43:06;;;;;;;2.97;2.88;;;27.10;99.90;;;;;;5070237;28;20158;-76
2023/06/07 12:45:31;;;;;;;3.00;2.80;;;27.30;99.90;;;;;;5072527;28;20228;-76
2023/06/07 12:47:57;;;;;;;3.03;2.78;;;27.30;99.90;;;;;;5072658;28;20595;-76